createdAt,value
2022-12-25T00:01:11.269Z,86.11
2022-12-25T00:03:48.276Z,86.22
2022-12-25T00:06:16.105Z,86.17
2022-12-25T00:08:44.073Z,86.25
2022-12-25T00:11:13.820Z,86.25
2022-12-25T00:13:42.792Z,86.35
2022-12-25T00:16:13.247Z,86.52
2022-12-25T00:18:41.135Z,86.36
2022-12-25T00:21:08.888Z,86.41
2022-12-25T00:23:36.565Z,86.60
2022-12-25T00:26:08.713Z,86.65
2022-12-25T00:28:36.971Z,86.42
2022-12-25T00:31:08.462Z,86.35
2022-12-25T00:33:37.207Z,86.39
2022-12-25T00:36:06.418Z,86.32
2022-12-25T00:38:35.103Z,86.55
2022-12-25T00:41:13.377Z,86.48
2022-12-25T00:43:44.158Z,86.90
2022-12-25T00:46:12.661Z,86.81
2022-12-25T00:48:40.824Z,86.56
2022-12-25T00:51:11.064Z,86.55
2022-12-25T00:53:38.755Z,86.70
2022-12-25T00:56:07.480Z,86.74
2022-12-25T00:58:35.419Z,87.15
2022-12-25T01:02:04.384Z,87.24
2022-12-25T01:04:32.369Z,87.45
2022-12-25T01:07:00.119Z,87.60
2022-12-25T01:09:46.413Z,87.49
2022-12-25T01:12:15.354Z,87.90
2022-12-25T01:14:43.508Z,87.70
2022-12-25T01:17:12.625Z,87.72
2022-12-25T01:19:42.884Z,87.75
2022-12-25T01:22:11.555Z,88.11
2022-12-25T01:24:40.794Z,88.16
2022-12-25T01:27:10.683Z,87.94
2022-12-25T01:29:40.273Z,88.14
2022-12-25T01:32:08.630Z,87.93
2022-12-25T01:34:37.898Z,88.07
2022-12-25T01:37:05.885Z,88.59
2022-12-25T01:39:34.158Z,88.28
2022-12-25T01:42:02.338Z,88.18
2022-12-25T01:44:35.013Z,88.41
2022-12-25T01:47:06.830Z,88.26
2022-12-25T01:49:36.410Z,88.05
2022-12-25T01:52:24.816Z,88.34
2022-12-25T01:54:57.730Z,88.60
2022-12-25T01:57:29.502Z,88.68
2022-12-25T01:59:57.806Z,88.86
2022-12-25T02:02:25.929Z,88.91
2022-12-25T02:05:04.657Z,88.80
2022-12-25T02:07:33.675Z,88.77
2022-12-25T02:10:01.597Z,88.35
2022-12-25T02:12:32.328Z,88.29
2022-12-25T02:15:08.346Z,88.34
2022-12-25T02:17:50.209Z,88.36
2022-12-25T02:20:23.809Z,88.39
2022-12-25T02:23:10.463Z,88.39
2022-12-25T02:25:47.302Z,88.54
2022-12-25T02:28:24.094Z,88.47
2022-12-25T02:31:02.505Z,88.23
2022-12-25T02:33:54.246Z,88.05
2022-12-25T02:36:24.034Z,88.16
2022-12-25T02:39:13.387Z,88.08
2022-12-25T02:41:43.855Z,88.10
2022-12-25T02:44:35.321Z,88.37
2022-12-25T02:47:23.438Z,88.18
2022-12-25T02:50:11.579Z,88.21
2022-12-25T02:52:59.259Z,88.66
2022-12-25T02:55:49.476Z,88.57
2022-12-25T02:58:38.446Z,88.88
2022-12-25T03:01:27.837Z,88.82
2022-12-25T03:04:15.842Z,88.57
2022-12-25T03:06:57.175Z,88.75
2022-12-25T03:09:46.409Z,88.71
2022-12-25T03:12:20.623Z,88.42
2022-12-25T03:15:07.366Z,88.55
2022-12-25T03:17:35.651Z,88.42
2022-12-25T03:20:22.687Z,88.75
2022-12-25T03:23:09.222Z,88.60
2022-12-25T03:25:55.727Z,88.52
2022-12-25T03:28:25.512Z,88.47
2022-12-25T03:31:14.209Z,88.52
2022-12-25T03:34:02.153Z,88.52
2022-12-25T03:36:41.112Z,88.25
2022-12-25T03:39:51.692Z,88.67
2022-12-25T03:42:41.939Z,88.78
2022-12-25T03:45:32.126Z,88.54
2022-12-25T03:48:19.240Z,88.51
2022-12-25T03:51:07.541Z,88.57
2022-12-25T03:54:01.693Z,88.46
2022-12-25T03:56:49.152Z,88.63
2022-12-25T03:59:41.256Z,88.70
2022-12-25T04:02:27.759Z,88.92
2022-12-25T04:05:14.583Z,89.04
2022-12-25T04:08:01.340Z,88.56
2022-12-25T04:10:48.141Z,88.41
2022-12-25T04:13:34.598Z,88.53
2022-12-25T04:16:23.732Z,88.34
2022-12-25T04:19:10.031Z,88.66
2022-12-25T04:21:56.400Z,88.37
2022-12-25T04:24:43.605Z,88.43
2022-12-25T04:27:30.712Z,87.84
2022-12-25T04:30:26.010Z,88.24
2022-12-25T04:33:16.096Z,88.58
2022-12-25T04:36:08.492Z,88.68
2022-12-25T04:38:37.313Z,88.98
2022-12-25T04:41:06.521Z,88.87
2022-12-25T04:43:34.493Z,89.02
2022-12-25T04:46:03.342Z,88.84
2022-12-25T04:48:32.706Z,88.90
2022-12-25T04:51:15.389Z,89.02
2022-12-25T04:53:43.913Z,89.02
2022-12-25T04:56:11.902Z,89.19
2022-12-25T04:58:41.781Z,88.93
2022-12-25T05:01:10.239Z,88.95
2022-12-25T05:03:38.031Z,88.95
2022-12-25T05:06:06.792Z,89.10
2022-12-25T05:08:35.158Z,89.01
2022-12-25T05:11:07.677Z,89.07
2022-12-25T05:13:36.194Z,89.09
2022-12-25T05:16:07.629Z,89.24
2022-12-25T05:18:35.733Z,89.39
2022-12-25T05:21:04.519Z,89.56
2022-12-25T05:23:32.313Z,89.58
2022-12-25T05:26:03.404Z,89.48
2022-12-25T05:28:31.390Z,89.66
2022-12-25T05:30:59.379Z,89.59
2022-12-25T05:33:27.216Z,89.48
2022-12-25T05:35:55.666Z,89.68
2022-12-25T05:38:23.346Z,89.44
2022-12-25T05:40:52.170Z,89.46
2022-12-25T05:43:20.101Z,89.31
2022-12-25T05:45:47.720Z,89.26
2022-12-25T05:48:16.073Z,89.03
2022-12-25T05:50:44.395Z,88.65
2022-12-25T05:53:13.560Z,88.89
2022-12-25T05:55:43.767Z,88.67
2022-12-25T05:58:12.669Z,88.99
2022-12-25T06:00:40.880Z,88.68
2022-12-25T06:03:09.987Z,88.57
2022-12-25T06:05:39.225Z,88.27
2022-12-25T06:08:09.614Z,88.74
2022-12-25T06:10:37.509Z,88.64
2022-12-25T06:13:05.492Z,88.40
2022-12-25T06:15:33.804Z,88.42
2022-12-25T06:18:01.693Z,88.47
2022-12-25T06:20:29.673Z,88.33
2022-12-25T06:22:57.263Z,88.32
2022-12-25T06:25:25.205Z,88.49
2022-12-25T06:27:53.620Z,88.14
2022-12-25T06:30:21.611Z,88.25
2022-12-25T06:32:49.594Z,88.19
2022-12-25T06:35:17.566Z,88.08
2022-12-25T06:37:45.151Z,88.14
2022-12-25T06:40:15.635Z,88.11
2022-12-25T06:42:43.920Z,88.03
2022-12-25T06:45:11.599Z,88.20
2022-12-25T06:47:40.444Z,88.06
2022-12-25T06:50:09.465Z,87.96
2022-12-25T06:52:37.072Z,88.34
2022-12-25T06:55:05.294Z,88.45
2022-12-25T06:57:33.120Z,88.36
2022-12-25T07:00:03.546Z,88.21
2022-12-25T07:02:32.894Z,88.19
2022-12-25T07:05:01.175Z,88.17
2022-12-25T07:07:28.829Z,88.29
2022-12-25T07:09:56.495Z,87.95
2022-12-25T07:12:24.676Z,88.02
2022-12-25T07:14:53.931Z,87.95
2022-12-25T07:17:23.579Z,88.11
2022-12-25T07:19:51.514Z,87.90
2022-12-25T07:22:20.675Z,87.76
2022-12-25T07:24:48.548Z,87.64
2022-12-25T07:27:16.860Z,87.61
2022-12-25T07:29:44.530Z,87.85
2022-12-25T07:32:12.331Z,87.57
2022-12-25T07:34:40.465Z,87.41
2022-12-25T07:37:08.193Z,87.29
2022-12-25T07:39:36.097Z,87.39
2022-12-25T07:42:04.228Z,87.23
2022-12-25T07:44:32.328Z,87.20
2022-12-25T07:47:00.152Z,86.85
2022-12-25T07:49:28.122Z,86.78
2022-12-25T07:51:55.838Z,86.93
2022-12-25T07:54:23.618Z,86.96
2022-12-25T07:56:52.505Z,86.93
2022-12-25T07:59:20.617Z,87.02
2022-12-25T08:01:50.552Z,86.85
2022-12-25T08:04:18.779Z,86.75
2022-12-25T08:06:46.487Z,86.98
2022-12-25T08:09:14.255Z,86.62
2022-12-25T08:11:46.656Z,86.62
2022-12-25T08:14:14.749Z,86.15
2022-12-25T08:16:42.754Z,86.56
2022-12-25T08:19:11.768Z,86.75
2022-12-25T08:21:39.541Z,86.57
2022-12-25T08:24:07.529Z,86.43
2022-12-25T08:26:35.381Z,86.22
2022-12-25T08:29:03.403Z,86.71
2022-12-25T08:31:34.144Z,86.38
2022-12-25T08:34:03.089Z,86.04
2022-12-25T08:36:30.922Z,86.11
2022-12-25T08:39:02.987Z,86.16
2022-12-25T08:41:32.130Z,86.10
2022-12-25T08:44:00.194Z,85.87
2022-12-25T08:46:28.136Z,86.16
2022-12-25T08:48:57.150Z,85.70
2022-12-25T08:51:25.666Z,85.75
2022-12-25T08:53:57.851Z,85.44
2022-12-25T08:56:26.192Z,85.77
2022-12-25T08:58:54.330Z,85.39
2022-12-25T09:01:22.728Z,85.73
2022-12-25T09:03:50.972Z,85.60
2022-12-25T09:06:19.367Z,85.48
2022-12-25T09:08:49.553Z,85.66
2022-12-25T09:11:18.521Z,85.09
2022-12-25T09:13:46.803Z,85.34
2022-12-25T09:16:16.508Z,85.24
2022-12-25T09:18:46.650Z,85.13
2022-12-25T09:21:15.468Z,85.23
2022-12-25T09:23:45.213Z,84.80
2022-12-25T09:26:14.684Z,84.70
2022-12-25T09:28:50.293Z,84.79
2022-12-25T09:31:20.702Z,84.51
2022-12-25T09:33:49.149Z,84.50
2022-12-25T09:36:17.310Z,84.00
2022-12-25T09:38:45.387Z,83.94
2022-12-25T09:41:32.104Z,84.15
2022-12-25T09:44:10.289Z,83.89
2022-12-25T09:46:41.334Z,83.89
2022-12-25T09:49:20.345Z,83.97
2022-12-25T09:51:52.387Z,83.72
2022-12-25T09:54:24.635Z,83.77
2022-12-25T09:56:52.465Z,83.76
2022-12-25T09:59:27.404Z,83.71
2022-12-25T10:02:06.533Z,83.44
2022-12-25T10:04:40.494Z,83.32
2022-12-25T10:07:15.293Z,83.24
2022-12-25T10:09:50.942Z,83.03
2022-12-25T10:12:27.230Z,82.88
2022-12-25T10:15:04.444Z,82.67
2022-12-25T10:17:51.255Z,82.68
2022-12-25T10:20:19.197Z,82.47
2022-12-25T10:22:51.511Z,82.06
2022-12-25T10:25:23.830Z,81.84
2022-12-25T10:27:55.477Z,81.55
2022-12-25T10:30:24.117Z,81.36
2022-12-25T10:32:52.960Z,80.94
2022-12-25T10:35:22.279Z,80.81
2022-12-25T10:38:00.604Z,80.75
2022-12-25T10:40:29.561Z,80.54
2022-12-25T10:43:04.488Z,80.65
2022-12-25T10:45:42.011Z,80.36
2022-12-25T10:48:15.038Z,80.26
2022-12-25T10:50:43.308Z,80.38
2022-12-25T10:53:18.172Z,80.21
2022-12-25T10:56:02.869Z,80.12
2022-12-25T10:58:31.103Z,79.92
2022-12-25T11:01:02.044Z,79.67
2022-12-25T11:03:31.998Z,79.47
2022-12-25T11:06:00.341Z,79.44
2022-12-25T11:08:33.302Z,79.42
2022-12-25T11:11:09.342Z,79.40
2022-12-25T11:13:47.855Z,79.20
2022-12-25T11:16:28.081Z,79.08
2022-12-25T11:18:56.589Z,78.83
2022-12-25T11:21:24.349Z,78.99
2022-12-25T11:23:58.133Z,78.78
2022-12-25T11:26:26.642Z,78.59
2022-12-25T11:28:56.391Z,78.54
2022-12-25T11:31:33.114Z,78.08
2022-12-25T11:34:10.382Z,77.91
2022-12-25T11:36:48.704Z,77.49
2022-12-25T11:39:17.817Z,77.31
2022-12-25T11:41:45.971Z,76.77
2022-12-25T11:44:27.515Z,76.72
2022-12-25T11:46:56.313Z,77.01
2022-12-25T11:49:24.561Z,76.72
2022-12-25T11:51:54.424Z,76.56
2022-12-25T11:54:31.010Z,76.54
2022-12-25T11:57:00.062Z,76.70
2022-12-25T11:59:31.988Z,76.17
2022-12-25T12:02:18.238Z,75.80
2022-12-25T12:04:49.689Z,75.64
2022-12-25T12:07:21.751Z,75.53
2022-12-25T12:10:03.444Z,75.32
2022-12-25T12:12:50.908Z,75.11
2022-12-25T12:15:39.544Z,74.85
2022-12-25T12:18:29.214Z,74.09
2022-12-25T12:21:08.110Z,73.35
2022-12-25T12:23:47.498Z,73.39
2022-12-25T12:26:26.021Z,73.03
2022-12-25T12:29:23.543Z,72.42
2022-12-25T12:31:54.370Z,71.74
2022-12-25T12:34:24.175Z,71.28
2022-12-25T12:36:54.741Z,70.68
2022-12-25T12:39:25.676Z,70.20
2022-12-25T12:41:54.248Z,69.82
2022-12-25T12:44:26.366Z,69.88
2022-12-25T12:46:56.854Z,69.43
2022-12-25T12:49:35.622Z,69.11
2022-12-25T12:52:23.810Z,68.64
2022-12-25T12:54:55.675Z,68.19
2022-12-25T12:57:25.599Z,67.96
2022-12-25T12:59:53.433Z,67.51
2022-12-25T13:02:30.184Z,66.98
2022-12-25T13:05:06.874Z,66.87
2022-12-25T13:07:44.310Z,66.54
2022-12-25T13:10:24.339Z,66.11
2022-12-25T13:12:58.297Z,66.12
2022-12-25T13:15:27.962Z,65.91
2022-12-25T13:17:57.557Z,65.58
2022-12-25T13:20:33.302Z,65.18
2022-12-25T13:23:01.223Z,65.47
2022-12-25T13:25:28.814Z,65.56
2022-12-25T13:27:57.332Z,65.73
2022-12-25T13:30:25.717Z,65.86
2022-12-25T13:32:53.624Z,66.14
2022-12-25T13:35:23.015Z,66.44
2022-12-25T13:37:51.256Z,66.90
2022-12-25T13:40:25.321Z,67.59
2022-12-25T13:43:00.557Z,68.10
2022-12-25T13:45:30.110Z,68.70
2022-12-25T13:47:58.328Z,69.08
2022-12-25T13:50:26.019Z,69.01
2022-12-25T13:52:54.875Z,69.13
2022-12-25T13:55:24.576Z,69.12
2022-12-25T13:57:59.726Z,69.49
2022-12-25T14:00:36.563Z,69.45
2022-12-25T14:03:05.568Z,69.29
2022-12-25T14:05:42.138Z,69.61
2022-12-25T14:08:15.673Z,69.77
2022-12-25T14:10:46.411Z,70.07
2022-12-25T14:13:15.075Z,70.28
2022-12-25T14:15:43.852Z,70.58
2022-12-25T14:18:14.957Z,70.78
2022-12-25T14:20:54.403Z,70.81
2022-12-25T14:23:22.421Z,71.07
2022-12-25T14:25:50.230Z,71.45
2022-12-25T14:28:19.969Z,71.54
2022-12-25T14:30:48.369Z,71.90
2022-12-25T14:33:17.653Z,71.93
2022-12-25T14:35:45.872Z,72.35
2022-12-25T14:38:23.546Z,72.58
2022-12-25T14:41:01.981Z,72.66
2022-12-25T14:43:31.249Z,73.25
2022-12-25T14:46:02.666Z,73.28
2022-12-25T14:48:31.453Z,73.53
2022-12-25T14:51:05.573Z,73.64
2022-12-25T14:53:53.198Z,73.67
2022-12-25T14:56:22.326Z,73.84
2022-12-25T14:58:51.845Z,74.07
2022-12-25T15:01:39.973Z,74.26
2022-12-25T15:04:08.003Z,74.32
2022-12-25T15:06:37.278Z,74.53
2022-12-25T15:09:14.758Z,74.61
2022-12-25T15:11:42.803Z,74.75
2022-12-25T15:14:10.363Z,74.89
2022-12-25T15:16:41.339Z,75.06
2022-12-25T15:19:13.043Z,75.27
2022-12-25T15:21:40.663Z,75.39
2022-12-25T15:24:11.850Z,75.54
2022-12-25T15:26:39.852Z,75.59
2022-12-25T15:29:07.820Z,75.55
2022-12-25T15:31:37.048Z,75.72
2022-12-25T15:34:07.771Z,75.81
2022-12-25T15:36:35.573Z,75.73
2022-12-25T15:39:03.290Z,75.67
2022-12-25T15:41:52.811Z,75.68
2022-12-25T15:44:20.735Z,75.56
2022-12-25T15:46:48.799Z,75.63
2022-12-25T15:49:16.973Z,75.57
2022-12-25T15:51:44.949Z,75.52
2022-12-25T15:54:13.990Z,75.62
2022-12-25T15:56:41.586Z,75.83
2022-12-25T15:59:10.085Z,75.82
2022-12-25T16:01:40.573Z,75.71
2022-12-25T16:04:08.337Z,75.90
2022-12-25T16:06:36.009Z,75.96
2022-12-25T16:09:03.983Z,76.06
2022-12-25T16:11:32.018Z,76.17
2022-12-25T16:13:59.978Z,76.21
2022-12-25T16:16:28.003Z,76.28
2022-12-25T16:18:57.758Z,76.34
2022-12-25T16:21:25.584Z,76.49
2022-12-25T16:23:53.476Z,76.58
2022-12-25T16:26:21.130Z,76.43
2022-12-25T16:28:48.992Z,76.53
2022-12-25T16:31:17.055Z,76.45
2022-12-25T16:33:46.999Z,76.47
2022-12-25T16:36:20.727Z,76.64
2022-12-25T16:38:52.971Z,76.70
2022-12-25T16:41:22.082Z,76.73
2022-12-25T16:43:49.918Z,76.59
2022-12-25T16:46:19.421Z,76.73
2022-12-25T16:48:47.418Z,76.80
2022-12-25T16:51:18.183Z,76.95
2022-12-25T16:53:46.286Z,77.02
2022-12-25T16:56:16.482Z,76.99
2022-12-25T16:58:46.745Z,77.05
2022-12-25T17:01:16.857Z,77.04
2022-12-25T17:03:44.622Z,77.18
2022-12-25T17:06:13.742Z,77.08
2022-12-25T17:08:43.454Z,77.09
2022-12-25T17:11:11.916Z,77.22
2022-12-25T17:13:39.673Z,77.35
2022-12-25T17:16:18.609Z,77.36
2022-12-25T17:18:46.356Z,77.37
2022-12-25T17:21:14.988Z,77.56
2022-12-25T17:23:47.792Z,77.60
2022-12-25T17:26:16.418Z,77.57
2022-12-25T17:28:44.264Z,77.61
2022-12-25T17:31:16.455Z,77.56
2022-12-25T17:33:44.592Z,77.85
2022-12-25T17:36:14.775Z,77.93
2022-12-25T17:38:43.198Z,78.10
2022-12-25T17:41:12.271Z,78.12
2022-12-25T17:43:42.696Z,78.13
2022-12-25T17:46:17.171Z,78.18
2022-12-25T17:48:45.986Z,78.44
2022-12-25T17:51:16.094Z,78.50
2022-12-25T17:53:44.957Z,78.31
2022-12-25T17:56:17.196Z,78.43
2022-12-25T17:58:49.332Z,78.51
2022-12-25T18:01:17.855Z,78.75
2022-12-25T18:03:45.866Z,78.77
2022-12-25T18:06:17.996Z,78.84
2022-12-25T18:08:46.618Z,78.81
2022-12-25T18:11:15.746Z,78.91
2022-12-25T18:13:45.069Z,78.94
2022-12-25T18:16:13.365Z,78.94
2022-12-25T18:18:45.195Z,79.14
2022-12-25T18:21:17.813Z,79.23
2022-12-25T18:23:46.492Z,79.17
2022-12-25T18:26:15.564Z,79.37
2022-12-25T18:28:44.057Z,79.23
2022-12-25T18:31:13.793Z,79.30
2022-12-25T18:33:42.164Z,79.49
2022-12-25T18:36:10.928Z,79.39
2022-12-25T18:38:38.576Z,79.59
2022-12-25T18:41:07.062Z,79.71
2022-12-25T18:43:52.711Z,79.75
2022-12-25T18:46:24.940Z,79.98
2022-12-25T18:48:56.639Z,79.78
2022-12-25T18:51:24.644Z,79.76
2022-12-25T18:53:52.298Z,79.88
2022-12-25T18:56:21.956Z,79.91
2022-12-25T18:58:49.668Z,79.97
2022-12-25T19:01:22.204Z,80.06
2022-12-25T19:03:51.888Z,80.13
2022-12-25T19:06:23.953Z,79.99
2022-12-25T19:08:52.520Z,79.95
2022-12-25T19:11:20.354Z,80.20
2022-12-25T19:13:48.046Z,80.08
2022-12-25T19:16:17.976Z,80.15
2022-12-25T19:18:45.966Z,79.91
2022-12-25T19:21:14.058Z,80.15
2022-12-25T19:23:42.001Z,80.00
2022-12-25T19:26:10.551Z,80.16
2022-12-25T19:28:38.761Z,80.18
2022-12-25T19:31:07.693Z,80.18
2022-12-25T19:33:36.662Z,80.03
2022-12-25T19:36:05.780Z,80.06
2022-12-25T19:38:33.769Z,80.07
2022-12-25T19:41:05.905Z,80.22
2022-12-25T19:43:35.449Z,80.26
2022-12-25T19:46:03.567Z,80.16
2022-12-25T19:48:32.561Z,80.15
2022-12-25T19:51:00.271Z,80.31
2022-12-25T19:53:29.408Z,80.15
2022-12-25T19:56:01.176Z,80.19
2022-12-25T19:58:31.114Z,80.23
2022-12-25T20:01:05.546Z,80.41
2022-12-25T20:03:38.765Z,80.46
2022-12-25T20:06:22.042Z,80.42
2022-12-25T20:08:52.987Z,80.54
2022-12-25T20:11:21.647Z,80.62
2022-12-25T20:13:49.917Z,80.51
2022-12-25T20:16:18.097Z,80.47
2022-12-25T20:18:48.523Z,80.53
2022-12-25T20:21:18.020Z,80.60
2022-12-25T20:23:48.020Z,80.72
2022-12-25T20:26:17.412Z,80.63
2022-12-25T20:28:46.665Z,80.67
2022-12-25T20:31:22.024Z,80.55
2022-12-25T20:33:50.190Z,80.49
2022-12-25T20:36:18.945Z,80.58
2022-12-25T20:38:46.848Z,80.77
2022-12-25T20:41:31.166Z,80.84
2022-12-25T20:44:02.059Z,80.84
2022-12-25T20:46:30.146Z,80.97
2022-12-25T20:48:57.945Z,81.10
2022-12-25T20:51:26.426Z,80.88
2022-12-25T20:53:55.478Z,80.91
2022-12-25T20:56:24.235Z,80.96
2022-12-25T20:58:53.553Z,81.05
2022-12-25T21:01:21.534Z,80.97
2022-12-25T21:03:49.583Z,81.16
2022-12-25T21:06:18.114Z,81.10
2022-12-25T21:08:45.716Z,81.25
2022-12-25T21:11:16.359Z,81.17
2022-12-25T21:13:46.225Z,81.41
2022-12-25T21:16:16.184Z,81.41
2022-12-25T21:18:46.504Z,81.48
2022-12-25T21:21:15.240Z,81.47
2022-12-25T21:23:42.901Z,81.62
2022-12-25T21:26:11.162Z,81.41
2022-12-25T21:28:39.369Z,81.53
2022-12-25T21:31:07.764Z,81.42
2022-12-25T21:33:54.552Z,81.48
2022-12-25T21:36:26.828Z,81.52
2022-12-25T21:38:59.005Z,81.68
2022-12-25T21:41:28.072Z,81.67
2022-12-25T21:43:56.053Z,81.67
2022-12-25T21:46:24.436Z,81.88
2022-12-25T21:48:52.845Z,81.85
2022-12-25T21:51:40.744Z,81.89
2022-12-25T21:54:10.016Z,82.01
2022-12-25T21:56:43.998Z,81.89
2022-12-25T21:59:15.214Z,82.03
2022-12-25T22:01:44.652Z,82.17
2022-12-25T22:04:13.899Z,82.35
2022-12-25T22:07:00.998Z,82.39
2022-12-25T22:09:28.988Z,82.34
2022-12-25T22:12:17.259Z,82.50
2022-12-25T22:14:54.773Z,82.46
2022-12-25T22:17:43.863Z,82.43
2022-12-25T22:20:14.160Z,82.31
2022-12-25T22:22:42.015Z,82.43
2022-12-25T22:25:11.048Z,82.63
2022-12-25T22:27:39.905Z,82.57
2022-12-25T22:30:09.739Z,82.61
2022-12-25T22:32:37.678Z,82.87
2022-12-25T22:35:05.649Z,82.94
2022-12-25T22:37:33.493Z,82.92
2022-12-25T22:40:03.044Z,83.10
2022-12-25T22:42:30.788Z,83.17
2022-12-25T22:44:58.704Z,83.21
2022-12-25T22:47:26.438Z,83.37
2022-12-25T22:49:54.146Z,83.52
2022-12-25T22:52:22.388Z,83.47
2022-12-25T22:54:50.285Z,83.67
2022-12-25T22:57:17.921Z,83.55
2022-12-25T22:59:47.135Z,83.65
2022-12-25T23:02:15.129Z,83.75
2022-12-25T23:04:42.968Z,83.79
2022-12-25T23:07:14.258Z,83.93
2022-12-25T23:09:42.739Z,83.84
2022-12-25T23:12:30.522Z,83.93
2022-12-25T23:14:58.887Z,84.06
2022-12-25T23:17:45.588Z,84.04
2022-12-25T23:20:33.317Z,83.98
2022-12-25T23:23:19.935Z,84.16
2022-12-25T23:26:06.992Z,84.31
2022-12-25T23:28:53.981Z,84.37
2022-12-25T23:31:24.825Z,84.32
2022-12-25T23:33:52.483Z,84.28
2022-12-25T23:36:20.155Z,84.13
2022-12-25T23:38:48.158Z,84.32
2022-12-25T23:41:15.831Z,84.32
2022-12-25T23:43:43.424Z,84.34
2022-12-25T23:46:11.445Z,84.45
2022-12-25T23:48:39.095Z,84.29
2022-12-25T23:51:07.285Z,84.48
2022-12-25T23:53:35.547Z,84.48
2022-12-25T23:56:03.908Z,84.62
2022-12-25T23:58:33.371Z,84.53
